Time;durP1;ratioP1;P1;durP2;ratioP2;P2;SDS_P1;SDS_P2;PMS_P1;PMS_P2;Temp;Humidity;BMP_temperature;BMP_pressure;BME280_temperature;BME280_humidity;BME280_pressure;Samples;Min_cycle;Max_cycle;Signal;HPM_P1;HPM_P2
2023/02/16 00:01:42;;;;;;;20.47;11.40;;;1.60;99.90;;;;;;5013086;28;20410;-84
2023/02/16 00:04:22;;;;;;;17.03;11.87;;;1.60;99.90;;;;;;4973133;28;20437;-84
2023/02/16 00:06:49;;;;;;;18.93;12.30;;;1.40;99.90;;;;;;5013098;28;20170;-80
2023/02/16 00:09:14;;;;;;;15.90;11.13;;;1.30;99.90;;;;;;5012876;28;20426;-84
2023/02/16 00:14:25;;;;;;;15.90;11.97;;;1.00;99.90;;;;;;5012838;28;20219;-85
2023/02/16 00:16:55;;;;;;;18.77;10.77;;;1.00;99.90;;;;;;5011707;28;20765;-85
2023/02/16 00:19:29;;;;;;;20.83;12.07;;;1.10;99.90;;;;;;5013546;28;20427;-81
2023/02/16 00:21:58;;;;;;;16.43;10.70;;;1.10;99.90;;;;;;5013760;28;20406;-82
2023/02/16 00:24:25;;;;;;;19.03;11.03;;;1.10;99.90;;;;;;5012967;28;20820;-85
2023/02/16 00:26:51;;;;;;;18.07;11.27;;;1.00;99.90;;;;;;5012913;28;20427;-81
2023/02/16 00:29:28;;;;;;;17.93;11.03;;;;;;;;;;5012502;28;20472;-83
2023/02/16 00:31:58;;;;;;;18.30;11.03;;;;;;;;;;5012883;28;20412;-82
2023/02/16 00:34:35;;;;;;;21.40;11.00;;;1.00;99.90;;;;;;5012671;28;20473;-84
2023/02/16 00:37:06;;;;;;;14.83;9.17;;;1.10;99.90;;;;;;5012897;28;20410;-81
2023/02/16 00:39:32;;;;;;;18.77;10.70;;;0.90;99.90;;;;;;5014036;28;20432;-82
2023/02/16 00:42:19;;;;;;;22.20;11.57;;;0.90;99.90;;;;;;5016486;28;20789;-84
2023/02/16 00:44:51;;;;;;;17.30;10.57;;;1.10;99.90;;;;;;5015896;28;20458;-83
2023/02/16 00:47:38;;;;;;;21.80;11.97;;;1.30;99.90;;;;;;5014958;28;20454;-81
2023/02/16 00:50:15;;;;;;;21.60;12.97;;;1.20;99.90;;;;;;5015084;28;20430;-80
2023/02/16 00:52:47;;;;;;;22.60;13.00;;;1.00;99.90;;;;;;5015081;28;20920;-88
2023/02/16 00:55:18;;;;;;;21.13;12.60;;;1.20;99.90;;;;;;5015425;28;20461;-85
2023/02/16 00:58:03;;;;;;;21.47;12.80;;;1.20;99.90;;;;;;5015326;28;20421;-84
2023/02/16 01:01:01;;;;;;;23.27;12.40;;;1.70;99.90;;;;;;5016196;28;20418;-85
2023/02/16 01:03:28;;;;;;;20.60;13.40;;;1.70;99.90;;;;;;5016493;28;20873;-88
2023/02/16 01:11:06;;;;;;;15.57;11.13;;;1.50;99.90;;;;;;5016721;28;20433;-83
2023/02/16 01:11:25;;;;;;;19.07;11.77;;;1.40;99.90;;;;;;5016759;28;20934;-83
2023/02/16 01:13:53;;;;;;;21.77;14.47;;;1.30;99.90;;;;;;5016350;28;20482;-85
2023/02/16 01:16:45;;;;;;;19.57;12.80;;;1.60;99.90;;;;;;5016041;28;20509;-84
2023/02/16 01:19:11;;;;;;;23.33;14.50;;;1.80;99.90;;;;;;5012456;28;20963;-83
2023/02/16 01:21:37;;;;;;;24.37;13.00;;;1.90;99.90;;;;;;5015575;28;20478;-90
2023/02/16 01:24:02;;;;;;;22.93;14.17;;;2.00;99.90;;;;;;5015441;28;20446;-90
2023/02/16 01:26:29;;;;;;;24.27;14.77;;;1.90;99.90;;;;;;5016271;28;20224;-88
2023/02/16 01:28:54;;;;;;;21.63;12.13;;;1.80;99.90;;;;;;5016382;28;20201;-84
2023/02/16 01:31:20;;;;;;;27.60;13.30;;;1.50;99.90;;;;;;5016287;28;20437;-90
2023/02/16 01:33:45;;;;;;;25.17;15.73;;;1.70;99.90;;;;;;5016252;28;20252;-91
2023/02/16 01:36:30;;;;;;;22.57;12.60;;;1.50;99.90;;;;;;5016119;28;20171;-92
2023/02/16 01:38:55;;;;;;;19.63;12.10;;;1.30;99.90;;;;;;5016389;28;20168;-88
2023/02/16 01:41:41;;;;;;;15.83;11.33;;;1.20;99.90;;;;;;5016071;28;20428;-85
2023/02/16 01:44:23;;;;;;;18.63;10.30;;;1.10;99.90;;;;;;5015391;28;20247;-83
2023/02/16 01:47:20;;;;;;;19.73;11.03;;;1.00;99.90;;;;;;5016136;28;20429;-85
2023/02/16 01:49:45;;;;;;;21.37;11.80;;;1.30;99.90;;;;;;4999209;28;20496;-93
2023/02/16 01:52:40;;;;;;;18.67;11.70;;;1.40;99.90;;;;;;5015480;28;20621;-92
2023/02/16 01:55:29;;;;;;;16.77;9.57;;;1.20;99.90;;;;;;5015840;28;20733;-89
2023/02/16 01:58:04;;;;;;;17.17;11.13;;;0.90;99.90;;;;;;5014545;28;20426;-92
2023/02/16 02:00:48;;;;;;;23.00;12.60;;;0.90;99.90;;;;;;5015458;28;20440;-83
2023/02/16 02:06:10;;;;;;;25.43;12.87;;;1.10;99.90;;;;;;4996465;28;20476;-87
2023/02/16 02:08:50;;;;;;;28.53;13.73;;;1.50;99.90;;;;;;4994798;28;20423;-89
2023/02/16 02:11:20;;;;;;;21.57;13.43;;;1.70;99.90;;;;;;4995831;28;20416;-82
2023/02/16 02:14:15;;;;;;;29.90;17.43;;;1.70;99.90;;;;;;4995433;28;20458;-88
2023/02/16 02:16:54;;;;;;;22.23;14.70;;;1.40;99.90;;;;;;4995543;28;20472;-82
2023/02/16 02:19:22;;;;;;;33.50;16.30;;;1.50;99.90;;;;;;4994319;28;20513;-82
2023/02/16 02:25:13;;;;;;;24.13;13.67;;;1.40;99.90;;;;;;4995477;28;20406;-87
2023/02/16 02:27:46;;;;;;;16.10;10.73;;;1.30;99.90;;;;;;4995136;28;20446;-83
2023/02/16 02:30:39;;;;;;;23.23;13.80;;;1.20;99.90;;;;;;4994601;28;20443;-83
2023/02/16 02:33:25;;;;;;;16.33;12.17;;;1.30;99.90;;;;;;4994751;28;20421;-86
2023/02/16 02:36:07;;;;;;;21.23;12.47;;;1.20;99.90;;;;;;4993579;28;20456;-86
2023/02/16 02:38:49;;;;;;;25.23;14.63;;;1.10;99.90;;;;;;4994726;28;20461;-85
2023/02/16 02:42:02;;;;;;;20.10;12.50;;;1.00;99.90;;;;;;4994762;28;20419;-86
2023/02/16 02:44:18;;;;;;;25.60;13.67;;;1.00;99.90;;;;;;4994082;28;20444;-88
2023/02/16 02:46:44;;;;;;;20.00;13.43;;;1.10;99.90;;;;;;4995129;28;20420;-89
2023/02/16 02:49:10;;;;;;;27.13;14.23;;;1.00;99.90;;;;;;4993666;28;20494;-83
2023/02/16 02:51:39;;;;;;;20.30;11.90;;;1.00;99.90;;;;;;4993928;28;21062;-88
2023/02/16 03:02:49;;;;;;;25.50;17.50;;;1.30;99.90;;;;;;4994875;28;20426;-90
2023/02/16 03:05:17;;;;;;;31.33;16.47;;;1.30;99.90;;;;;;4994984;28;20421;-82
2023/02/16 03:07:45;;;;;;;28.00;18.73;;;1.60;99.90;;;;;;4994930;28;20443;-90
2023/02/16 03:12:59;;;;;;;32.33;17.70;;;1.80;99.90;;;;;;4994918;28;20820;-88
2023/02/16 03:15:26;;;;;;;28.77;15.97;;;1.80;99.90;;;;;;4994256;28;20436;-87
2023/02/16 03:31:42;;;;;;;25.57;15.70;;;2.10;99.90;;;;;;4995109;28;20837;-84
2023/02/16 03:34:08;;;;;;;28.60;17.60;;;2.20;99.90;;;;;;4994630;28;20474;-92
2023/02/16 03:36:41;;;;;;;29.60;17.43;;;2.20;99.90;;;;;;4966315;28;20493;-87
2023/02/16 03:39:08;;;;;;;29.27;17.30;;;2.10;99.90;;;;;;5013281;28;20419;-84
2023/02/16 03:41:39;;;;;;;30.50;17.67;;;2.20;99.90;;;;;;5014297;28;20415;-90
2023/02/16 03:44:04;;;;;;;26.23;16.20;;;2.20;99.90;;;;;;5013865;28;20559;-91
2023/02/16 03:46:32;;;;;;;33.83;18.47;;;2.10;99.90;;;;;;5014145;28;20482;-84
2023/02/16 03:48:58;;;;;;;32.50;17.90;;;2.10;99.90;;;;;;5014330;28;20179;-92
2023/02/16 03:51:23;;;;;;;28.50;17.83;;;2.00;99.90;;;;;;5014639;28;20882;-93
2023/02/16 03:53:49;;;;;;;31.43;14.40;;;2.00;99.90;;;;;;5014073;28;20207;-93
2023/02/16 03:56:15;;;;;;;27.10;15.33;;;1.80;99.90;;;;;;5014169;28;20222;-88
2023/02/16 03:58:40;;;;;;;23.40;16.00;;;1.80;99.90;;;;;;5013917;28;20526;-92
2023/02/16 04:01:06;;;;;;;32.17;15.90;;;1.80;99.90;;;;;;5012941;28;20657;-91
2023/02/16 04:03:32;;;;;;;39.20;19.20;;;1.90;99.90;;;;;;5013800;28;20643;-93
2023/02/16 04:05:57;;;;;;;27.87;17.33;;;1.90;99.90;;;;;;5014053;28;20244;-92
2023/02/16 04:08:23;;;;;;;27.13;17.40;;;1.80;99.90;;;;;;5014066;28;20476;-93
2023/02/16 04:10:48;;;;;;;25.33;16.07;;;1.80;99.90;;;;;;5014041;28;20179;-84
2023/02/16 04:13:14;;;;;;;27.53;16.40;;;1.60;99.90;;;;;;5012810;28;20218;-92
2023/02/16 04:15:40;;;;;;;28.33;17.00;;;1.80;99.90;;;;;;5016553;28;20658;-91
2023/02/16 04:18:05;;;;;;;24.13;14.33;;;1.70;99.90;;;;;;5017634;28;20173;-83
2023/02/16 04:20:33;;;;;;;25.23;15.77;;;1.80;99.90;;;;;;5016778;28;20428;-92
2023/02/16 04:22:58;;;;;;;23.83;14.47;;;1.80;99.90;;;;;;5017800;28;20258;-83
2023/02/16 04:25:25;;;;;;;33.33;18.70;;;1.80;99.90;;;;;;5016600;28;20903;-92
2023/02/16 04:27:51;;;;;;;25.83;16.40;;;1.70;99.90;;;;;;5017479;28;20528;-83
2023/02/16 04:30:23;;;;;;;23.47;15.30;;;1.90;99.90;;;;;;5017532;28;20424;-88
2023/02/16 04:32:49;;;;;;;31.80;17.23;;;1.80;99.90;;;;;;5018059;28;20767;-91
2023/02/16 04:35:15;;;;;;;26.43;16.27;;;1.80;99.90;;;;;;5016600;28;20490;-91
2023/02/16 04:37:46;;;;;;;33.40;19.00;;;1.50;99.90;;;;;;5016747;28;20441;-83
2023/02/16 04:40:15;;;;;;;25.53;17.17;;;1.50;99.90;;;;;;5017694;28;20429;-91
2023/02/16 04:42:42;;;;;;;24.27;14.30;;;1.80;99.90;;;;;;5016638;28;20487;-90
2023/02/16 04:45:08;;;;;;;30.37;16.80;;;1.80;99.90;;;;;;5015551;28;21074;-87
2023/02/16 04:47:34;;;;;;;36.03;16.77;;;1.80;99.90;;;;;;5015366;28;20431;-87
2023/02/16 04:49:59;;;;;;;29.03;16.93;;;2.00;99.90;;;;;;5016506;28;20429;-87
2023/02/16 04:52:25;;;;;;;28.87;17.23;;;1.70;99.90;;;;;;5016264;28;20178;-87
2023/02/16 04:54:50;;;;;;;26.13;16.47;;;1.80;99.90;;;;;;5016414;28;20258;-88
2023/02/16 04:57:18;;;;;;;37.73;20.07;;;1.70;99.90;;;;;;5017042;28;20170;-91
2023/02/16 04:59:43;;;;;;;26.27;16.93;;;1.90;99.90;;;;;;5015932;28;20179;-91
2023/02/16 05:02:09;;;;;;;28.67;16.67;;;1.80;99.90;;;;;;5015863;28;20479;-90
2023/02/16 05:04:34;;;;;;;26.60;15.83;;;1.80;99.90;;;;;;5015981;28;20184;-92
2023/02/16 05:07:00;;;;;;;29.63;16.17;;;1.80;99.90;;;;;;5017381;28;20182;-91
2023/02/16 05:09:25;;;;;;;28.30;16.63;;;1.90;99.90;;;;;;4979174;28;20338;-92
2023/02/16 05:14:41;;;;;;;26.47;15.80;;;1.80;99.90;;;;;;5016586;28;20219;-93
2023/02/16 05:17:21;;;;;;;27.53;17.90;;;1.80;99.90;;;;;;5015498;28;20470;-91
2023/02/16 05:19:52;;;;;;;27.27;17.33;;;1.90;99.90;;;;;;5016819;28;20918;-91
2023/02/16 05:22:18;;;;;;;34.37;19.30;;;1.80;99.90;;;;;;5016794;28;20476;-93
2023/02/16 05:24:44;;;;;;;29.13;18.00;;;1.90;99.90;;;;;;5015660;28;20512;-91
2023/02/16 05:27:19;;;;;;;34.10;18.20;;;2.00;99.90;;;;;;5015362;28;20175;-90
2023/02/16 05:29:45;;;;;;;32.03;15.40;;;2.00;99.90;;;;;;5015574;28;20500;-90
2023/02/16 05:32:11;;;;;;;30.17;18.83;;;2.00;99.90;;;;;;5016525;28;20410;-91
2023/02/16 05:34:36;;;;;;;28.07;18.53;;;2.00;99.90;;;;;;5015355;28;20214;-90
2023/02/16 05:37:02;;;;;;;26.50;17.23;;;2.00;99.90;;;;;;5016623;28;20171;-91
2023/02/16 05:39:30;;;;;;;28.10;17.80;;;2.00;99.90;;;;;;5015486;28;20180;-92
2023/02/16 05:41:56;;;;;;;27.40;17.93;;;2.10;99.90;;;;;;5015298;28;20632;-91
2023/02/16 05:44:21;;;;;;;35.20;20.87;;;2.10;99.90;;;;;;5014469;28;20441;-86
2023/02/16 05:46:47;;;;;;;33.30;19.67;;;2.20;99.90;;;;;;5016367;28;20181;-91
2023/02/16 05:49:14;;;;;;;29.60;16.73;;;2.20;99.90;;;;;;5014697;28;20273;-85
2023/02/16 05:51:40;;;;;;;27.47;18.17;;;2.30;99.90;;;;;;5014526;28;20536;-88
2023/02/16 05:54:06;;;;;;;27.60;18.43;;;2.20;99.90;;;;;;5014240;28;20492;-88
2023/02/16 05:56:32;;;;;;;31.40;19.20;;;2.20;99.90;;;;;;5015436;28;20425;-84
2023/02/16 05:59:00;;;;;;;31.20;17.43;;;2.20;99.90;;;;;;5015161;28;20409;-89
2023/02/16 06:01:27;;;;;;;28.10;18.27;;;2.10;99.90;;;;;;5014083;28;20181;-89
2023/02/16 06:03:53;;;;;;;39.27;21.13;;;2.30;99.90;;;;;;5015308;28;20412;-88
2023/02/16 06:06:18;;;;;;;32.07;18.10;;;2.30;99.90;;;;;;5015459;28;20837;-91
2023/02/16 06:08:44;;;;;;;28.80;18.07;;;2.30;99.90;;;;;;5015618;28;20181;-91
2023/02/16 06:13:56;;;;;;;29.40;19.33;;;2.30;99.90;;;;;;5015462;28;20216;-90
2023/02/16 06:16:25;;;;;;;32.60;21.10;;;2.30;99.90;;;;;;5015385;28;20424;-84
2023/02/16 06:18:52;;;;;;;35.87;20.53;;;2.30;99.90;;;;;;5013505;28;20445;-86
2023/02/16 06:21:17;;;;;;;39.83;21.40;;;2.30;99.90;;;;;;5014993;28;20411;-92
2023/02/16 06:23:46;;;;;;;33.03;19.90;;;2.20;99.90;;;;;;5014037;28;20434;-89
2023/02/16 06:26:11;;;;;;;32.50;18.50;;;2.30;99.90;;;;;;5014586;28;20189;-83
2023/02/16 06:28:36;;;;;;;34.63;19.23;;;2.20;99.90;;;;;;5013202;28;20429;-88
2023/02/16 06:31:05;;;;;;;32.30;21.53;;;2.10;99.90;;;;;;5014611;28;20190;-89
2023/02/16 06:33:30;;;;;;;35.27;19.30;;;2.30;99.90;;;;;;5014408;28;20209;-87
2023/02/16 06:35:56;;;;;;;30.70;18.67;;;2.20;99.90;;;;;;5015041;28;20420;-88
2023/02/16 06:38:21;;;;;;;26.77;17.70;;;2.10;99.90;;;;;;5014760;28;20171;-88
2023/02/16 06:40:47;;;;;;;38.13;19.50;;;2.10;99.90;;;;;;5013509;28;20189;-85
2023/02/16 06:43:12;;;;;;;37.20;20.90;;;2.30;99.90;;;;;;5013316;28;20172;-89
2023/02/16 06:45:37;;;;;;;33.53;21.73;;;2.60;99.90;;;;;;5014572;28;20223;-87
2023/02/16 06:48:03;;;;;;;30.30;17.77;;;2.50;99.90;;;;;;5014774;28;20212;-90
2023/02/16 06:50:28;;;;;;;33.10;20.93;;;2.60;99.90;;;;;;5013555;28;20221;-87
2023/02/16 06:52:57;;;;;;;44.03;31.87;;;2.60;99.90;;;;;;5014755;28;20202;-89
2023/02/16 06:55:23;;;;;;;40.53;24.70;;;2.70;99.90;;;;;;5014474;28;20209;-87
2023/02/16 06:57:48;;;;;;;41.57;24.00;;;2.70;99.90;;;;;;5012953;28;20425;-88
2023/02/16 07:00:14;;;;;;;32.60;21.80;;;2.70;99.90;;;;;;5013802;28;20247;-86
2023/02/16 07:02:42;;;;;;;31.80;20.53;;;2.60;99.90;;;;;;5013715;28;20650;-88
2023/02/16 07:05:08;;;;;;;36.50;20.77;;;2.60;99.90;;;;;;5013501;28;20426;-87
2023/02/16 07:07:33;;;;;;;39.03;25.47;;;2.70;99.90;;;;;;5014197;28;20414;-88
2023/02/16 07:09:59;;;;;;;31.63;19.80;;;2.70;99.90;;;;;;5014129;28;20176;-88
2023/02/16 07:12:24;;;;;;;36.53;21.53;;;2.70;99.90;;;;;;5012959;28;20180;-88
2023/02/16 07:14:50;;;;;;;35.73;19.67;;;2.60;99.90;;;;;;5012488;28;20330;-88
2023/02/16 07:17:16;;;;;;;37.13;22.07;;;2.70;99.90;;;;;;5014355;28;20177;-85
2023/02/16 07:19:41;;;;;;;30.43;20.97;;;2.80;99.90;;;;;;5014532;28;20196;-88
2023/02/16 07:22:10;;;;;;;33.03;22.40;;;2.90;99.90;;;;;;5014289;28;20425;-91
2023/02/16 07:24:35;;;;;;;43.47;24.00;;;3.10;99.90;;;;;;5013063;28;20175;-91
2023/02/16 07:27:01;;;;;;;31.20;21.00;;;3.30;99.90;;;;;;5014255;28;20420;-87
2023/02/16 07:29:26;;;;;;;43.60;21.43;;;3.70;99.90;;;;;;5013937;28;20618;-84
2023/02/16 07:31:52;;;;;;;33.43;22.13;;;3.70;99.90;;;;;;5014113;28;20195;-84
2023/02/16 07:34:17;;;;;;;30.27;20.33;;;4.20;99.90;;;;;;5013855;28;20211;-86
2023/02/16 07:36:44;;;;;;;32.60;21.77;;;4.10;99.90;;;;;;5013738;28;20201;-86
2023/02/16 07:39:09;;;;;;;35.10;19.90;;;4.20;99.90;;;;;;5013504;28;20172;-84
2023/02/16 07:41:35;;;;;;;40.63;21.73;;;4.00;99.90;;;;;;5013521;28;20414;-87
2023/02/16 07:44:00;;;;;;;33.70;19.87;;;4.10;99.90;;;;;;5012992;28;20178;-85
2023/02/16 07:46:26;;;;;;;29.07;20.13;;;4.20;99.90;;;;;;5013233;28;20752;-86
2023/02/16 07:48:51;;;;;;;30.37;19.50;;;4.20;99.90;;;;;;4973500;28;20191;-92
2023/02/16 07:51:25;;;;;;;35.90;19.50;;;4.20;99.90;;;;;;5013330;28;20180;-88
2023/02/16 07:53:51;;;;;;;34.83;21.07;;;4.10;99.90;;;;;;5013628;28;20216;-88
2023/02/16 07:56:22;;;;;;;35.60;22.10;;;4.10;99.90;;;;;;5013832;28;20443;-88
2023/02/16 07:58:50;;;;;;;42.57;20.50;;;4.10;99.90;;;;;;5012147;28;20523;-85
2023/02/16 08:01:16;;;;;;;35.67;23.30;;;4.10;99.90;;;;;;5012093;28;20790;-87
2023/02/16 08:03:42;;;;;;;36.77;20.70;;;4.20;99.90;;;;;;5012128;28;20428;-87
2023/02/16 08:06:08;;;;;;;43.00;22.13;;;4.20;99.90;;;;;;5013354;28;20576;-84
2023/02/16 08:08:34;;;;;;;44.60;27.03;;;4.30;99.90;;;;;;5013568;28;20410;-86
2023/02/16 08:11:06;;;;;;;37.63;22.90;;;4.40;99.90;;;;;;5014023;28;20172;-86
2023/02/16 08:13:31;;;;;;;40.23;24.57;;;4.40;99.90;;;;;;5013449;28;20458;-89
2023/02/16 08:16:03;;;;;;;35.53;21.70;;;4.50;99.90;;;;;;5012755;28;20543;-91
2023/02/16 08:18:29;;;;;;;28.90;20.27;;;4.50;99.90;;;;;;5013904;28;20159;-85
2023/02/16 08:20:56;;;;;;;39.97;23.33;;;4.60;99.90;;;;;;5013914;28;20780;-88
2023/02/16 08:23:21;;;;;;;39.80;23.43;;;4.60;99.90;;;;;;5013765;28;20474;-87
2023/02/16 08:25:49;;;;;;;39.57;21.23;;;4.70;99.90;;;;;;5013531;28;20773;-91
2023/02/16 08:28:18;;;;;;;32.57;20.60;;;4.80;99.90;;;;;;5012226;28;20173;-87
2023/02/16 08:30:43;;;;;;;36.03;24.97;;;4.80;99.90;;;;;;5013619;28;20435;-86
2023/02/16 08:33:09;;;;;;;35.23;22.10;;;4.90;99.90;;;;;;5013399;28;20938;-88
2023/02/16 08:35:37;;;;;;;35.27;22.77;;;4.90;99.90;;;;;;5011919;28;20183;-85
2023/02/16 08:38:02;;;;;;;31.63;22.30;;;5.00;99.90;;;;;;5012446;28;20211;-88
2023/02/16 08:40:28;;;;;;;35.10;21.83;;;5.00;99.90;;;;;;5011533;28;20508;-88
2023/02/16 08:42:54;;;;;;;34.20;20.73;;;5.00;99.90;;;;;;5012639;28;20177;-89
2023/02/16 08:45:20;;;;;;;65.57;36.63;;;;;;;;;;5028279;28;20824;-91
2023/02/16 08:47:47;;;;;;;39.87;24.97;;;5.40;99.90;;;;;;5013507;28;20177;-84
2023/02/16 08:50:14;;;;;;;47.70;23.67;;;5.40;99.90;;;;;;5013450;28;20451;-86
2023/02/16 08:52:40;;;;;;;44.57;25.63;;;5.40;99.90;;;;;;5012180;28;20527;-89
2023/02/16 08:55:06;;;;;;;37.80;21.97;;;5.50;99.90;;;;;;4973441;28;20561;-90
2023/02/16 08:57:34;;;;;;;38.60;25.57;;;5.40;99.90;;;;;;5012101;28;20177;-91
2023/02/16 09:02:44;;;;;;;33.53;20.87;;;5.60;99.90;;;;;;5016918;28;20458;-89
2023/02/16 09:05:09;;;;;;;33.47;21.27;;;5.60;99.90;;;;;;5016514;28;20909;-86
2023/02/16 09:07:35;;;;;;;31.83;21.83;;;5.70;99.90;;;;;;5015292;28;20173;-85
2023/02/16 09:10:01;;;;;;;33.87;21.67;;;5.80;99.90;;;;;;5016432;28;20177;-89
2023/02/16 09:12:28;;;;;;;36.50;23.10;;;5.80;99.90;;;;;;5016534;28;20222;-84
2023/02/16 09:14:54;;;;;;;35.67;21.67;;;;;;;;;;5016035;28;20940;-86
2023/02/16 09:17:20;;;;;;;39.53;26.40;;;;;;;;;;5016820;28;20529;-84
2023/02/16 09:19:47;;;;;;;37.77;28.30;;;;;;;;;;5016667;28;20413;-86
2023/02/16 09:22:12;;;;;;;42.23;29.43;;;;;;;;;;5016799;28;20397;-87
2023/02/16 09:24:38;;;;;;;32.00;21.27;;;;;;;;;;5014513;28;20425;-86
2023/02/16 09:27:07;;;;;;;31.93;21.00;;;6.30;99.90;;;;;;5015619;28;20902;-84
2023/02/16 09:29:33;;;;;;;36.73;21.27;;;6.30;99.90;;;;;;5014143;28;20948;-83
2023/02/16 09:31:59;;;;;;;26.07;19.87;;;6.40;99.90;;;;;;5015722;28;20410;-85
2023/02/16 09:34:26;;;;;;;34.93;22.03;;;6.50;99.90;;;;;;5015413;28;20518;-86
2023/02/16 09:36:51;;;;;;;27.17;18.93;;;6.60;99.90;;;;;;5015531;28;20223;-86
2023/02/16 09:39:17;;;;;;;35.50;21.43;;;6.60;99.90;;;;;;5015342;28;20427;-87
2023/02/16 09:42:21;;;;;;;31.87;20.80;;;6.70;99.90;;;;;;5014924;28;20178;-88
2023/02/16 09:45:10;;;;;;;32.10;21.23;;;6.70;99.90;;;;;;5015173;28;20679;-86
2023/02/16 09:47:40;;;;;;;30.87;21.43;;;6.80;99.90;;;;;;5015377;28;20432;-87
2023/02/16 09:50:27;;;;;;;30.27;20.17;;;;;;;;;;5015256;28;20423;-88
2023/02/16 09:53:07;;;;;;;33.70;20.80;;;;;;;;;;5014037;28;20965;-88
2023/02/16 09:55:47;;;;;;;35.90;22.93;;;;;;;;;;5015466;28;20771;-88
2023/02/16 09:58:18;;;;;;;32.20;21.20;;;;;;;;;;5014426;28;20985;-89
2023/02/16 10:00:49;;;;;;;36.00;23.13;;;;;;;;;;5014266;28;20430;-86
2023/02/16 10:03:36;;;;;;;31.90;21.70;;;;;;;;;;5015575;28;20406;-86
2023/02/16 10:06:16;;;;;;;38.43;22.43;;;;;;;;;;5003014;28;20755;-90
2023/02/16 10:08:55;;;;;;;32.43;20.87;;;;;;;;;;4997648;28;20430;-84
2023/02/16 10:11:37;;;;;;;30.70;19.40;;;;;;;;;;5014402;28;20911;-89
2023/02/16 10:14:23;;;;;;;30.57;21.00;;;;;;;;;;5015144;28;20457;-86
2023/02/16 10:16:56;;;;;;;40.63;23.10;;;;;;;;;;4974901;28;20846;-84
2023/02/16 10:19:30;;;;;;;29.63;19.20;;;;;;;;;;5015017;28;20413;-81
2023/02/16 10:22:00;;;;;;;36.67;22.40;;;;;;;;;;5014714;28;20476;-82
2023/02/16 10:24:27;;;;;;;32.80;20.77;;;;;;;;;;5014664;28;20459;-83
2023/02/16 10:27:03;;;;;;;33.50;20.90;;;;;;;;;;5014539;28;20552;-83
2023/02/16 10:29:30;;;;;;;34.70;22.03;;;;;;;;;;5014102;28;20975;-82
2023/02/16 10:32:03;;;;;;;34.23;20.17;;;;;;;;;;5014542;28;20404;-83
2023/02/16 10:34:39;;;;;;;34.70;21.20;;;;;;;;;;5014469;28;20473;-83
2023/02/16 10:37:18;;;;;;;35.57;21.57;;;;;;;;;;5014442;28;20497;-83
2023/02/16 10:39:50;;;;;;;33.90;21.20;;;;;;;;;;5014335;28;20410;-83
2023/02/16 10:42:35;;;;;;;33.83;21.33;;;;;;;;;;5014340;28;20432;-83
2023/02/16 10:45:16;;;;;;;31.53;20.00;;;;;;;;;;5013807;28;20450;-83
2023/02/16 10:47:44;;;;;;;33.90;21.20;;;;;;;;;;5014090;28;20422;-83
2023/02/16 10:50:18;;;;;;;33.73;21.37;;;;;;;;;;5014076;28;20417;-83
2023/02/16 10:52:44;;;;;;;27.80;19.00;;;;;;;;;;5014072;28;20401;-83
2023/02/16 10:55:11;;;;;;;33.70;21.30;;;;;;;;;;5013831;28;20471;-83
2023/02/16 10:57:38;;;;;;;26.63;19.90;;;;;;;;;;5013609;28;20979;-82
2023/02/16 11:00:12;;;;;;;31.10;21.10;;;;;;;;;;5013940;28;20419;-83
2023/02/16 11:02:39;;;;;;;37.40;22.73;;;;;;;;;;5013952;28;20422;-82
2023/02/16 11:05:25;;;;;;;34.03;22.57;;;;;;;;;;5012508;28;20423;-83
2023/02/16 11:07:55;;;;;;;33.00;22.30;;;;;;;;;;5013914;28;20893;-83
2023/02/16 11:10:22;;;;;;;33.10;22.20;;;;;;;;;;5013763;28;20423;-84
2023/02/16 11:12:55;;;;;;;31.37;21.20;;;;;;;;;;4971728;28;20477;-82
2023/02/16 11:15:22;;;;;;;33.90;22.13;;;;;;;;;;5013512;28;20483;-82
2023/02/16 11:17:59;;;;;;;30.87;20.90;;;;;;;;;;5013702;28;20415;-83
2023/02/16 11:20:30;;;;;;;32.37;23.17;;;;;;;;;;5013597;28;20418;-83
2023/02/16 11:23:16;;;;;;;36.60;21.80;;;;;;;;;;5013542;28;20465;-83
2023/02/16 11:25:42;;;;;;;34.33;20.30;;;;;;;;;;5013269;28;20407;-83
2023/02/16 11:28:10;;;;;;;32.17;22.60;;;;;;;;;;5013183;28;20966;-83
2023/02/16 11:30:40;;;;;;;34.50;23.77;;;;;;;;;;5013426;28;20419;-83
2023/02/16 11:33:21;;;;;;;33.23;21.63;;;;;;;;;;5013602;28;20446;-85
2023/02/16 11:35:48;;;;;;;36.40;23.57;;;;;;;;;;5013500;28;20473;-80
2023/02/16 11:38:25;;;;;;;31.07;19.77;;;;;;;;;;5013462;28;20458;-82
2023/02/16 11:40:52;;;;;;;32.47;23.63;;;;;;;;;;5013273;28;20815;-82
2023/02/16 11:43:18;;;;;;;35.17;22.03;;;;;;;;;;5012765;28;20498;-83
2023/02/16 11:45:56;;;;;;;34.70;23.70;;;;;;;;;;5013044;28;21089;-84
2023/02/16 11:48:27;;;;;;;32.77;22.10;;;;;;;;;;5013162;28;20403;-84
2023/02/16 11:51:03;;;;;;;31.73;20.87;;;;;;;;;;5013066;28;20495;-85
2023/02/16 11:53:31;;;;;;;30.77;19.50;;;;;;;;;;5011797;28;20551;-83
2023/02/16 11:56:23;;;;;;;34.47;21.73;;;;;;;;;;5013002;28;20423;-84
2023/02/16 11:59:11;;;;;;;39.13;22.03;;;;;;;;;;5007369;28;20425;-84
2023/02/16 12:01:56;;;;;;;29.13;19.97;;;;;;;;;;5012994;28;20434;-84
2023/02/16 12:04:33;;;;;;;32.00;20.60;;;;;;;;;;5013040;28;20410;-84
2023/02/16 12:07:02;;;;;;;37.23;23.17;;;;;;;;;;5013036;28;20453;-83
2023/02/16 12:09:37;;;;;;;35.90;23.20;;;;;;;;;;5012960;28;20412;-83
2023/02/16 12:12:09;;;;;;;34.30;23.40;;;;;;;;;;5013138;28;20438;-83
2023/02/16 12:14:55;;;;;;;27.60;20.47;;;;;;;;;;5012758;28;20477;-83
2023/02/16 12:17:39;;;;;;;38.17;23.13;;;;;;;;;;4973166;28;20463;-83
2023/02/16 12:20:05;;;;;;;31.57;21.50;;;;;;;;;;5013162;28;20402;-84
2023/02/16 12:22:37;;;;;;;34.00;20.50;;;;;;;;;;5013126;28;20500;-84
2023/02/16 12:25:22;;;;;;;39.10;21.97;;;;;;;;;;5013000;28;20420;-83
2023/02/16 12:27:58;;;;;;;49.27;22.77;;;;;;;;;;5011445;28;20853;-85
2023/02/16 12:30:29;;;;;;;34.27;21.47;;;;;;;;;;5012998;28;20431;-85
2023/02/16 12:33:14;;;;;;;35.77;24.40;;;;;;;;;;5012956;28;20894;-84
2023/02/16 12:35:40;;;;;;;40.20;23.30;;;;;;;;;;5014284;28;20435;-84
2023/02/16 12:38:21;;;;;;;37.03;22.73;;;;;;;;;;5016674;28;20407;-84
2023/02/16 12:40:59;;;;;;;36.77;23.10;;;;;;;;;;5016556;28;20206;-82
2023/02/16 12:43:29;;;;;;;38.33;22.00;;;;;;;;;;5016202;28;20423;-78
2023/02/16 12:45:57;;;;;;;39.20;23.80;;;;;;;;;;5016332;28;20525;-78
2023/02/16 12:48:29;;;;;;;41.63;25.50;;;;;;;;;;5016369;28;20440;-78
2023/02/16 12:50:56;;;;;;;53.60;25.97;;;;;;;;;;5016351;28;20422;-78
2023/02/16 12:53:28;;;;;;;41.70;25.30;;;;;;;;;;5016288;28;20507;-79
2023/02/16 12:56:11;;;;;;;39.43;23.50;;;;;;;;;;5016632;28;20936;-79
2023/02/16 12:58:39;;;;;;;41.20;25.13;;;;;;;;;;5016078;28;20521;-78
2023/02/16 13:01:25;;;;;;;38.00;25.17;;;;;;;;;;5016223;28;20417;-78
2023/02/16 13:03:53;;;;;;;37.13;24.27;;;;;;;;;;5016025;28;20447;-77
2023/02/16 13:06:22;;;;;;;32.13;20.33;;;;;;;;;;5016192;28;20419;-79
2023/02/16 13:09:00;;;;;;;38.10;23.07;;;;;;;;;;5016141;28;20420;-79
2023/02/16 13:11:33;;;;;;;40.87;25.00;;;;;;;;;;5015894;28;20410;-77
2023/02/16 13:14:01;;;;;;;40.37;23.77;;;;;;;;;;5015522;28;20946;-77
2023/02/16 13:16:31;;;;;;;36.37;23.07;;;;;;;;;;5009079;28;20429;-77
2023/02/16 13:18:57;;;;;;;41.63;23.97;;;;;;;;;;4987219;28;20421;-79
2023/02/16 13:21:35;;;;;;;37.87;23.33;;;;;;;;;;5015801;28;20420;-79
2023/02/16 13:24:09;;;;;;;36.83;23.90;;;;;;;;;;5015669;28;20444;-78
2023/02/16 13:26:52;;;;;;;34.97;23.30;;;;;;;;;;5015735;28;20469;-79
2023/02/16 13:29:28;;;;;;;33.63;22.93;;;;;;;;;;5015343;28;20419;-79
2023/02/16 13:32:03;;;;;;;38.90;22.50;;;;;;;;;;5015665;28;20807;-78
2023/02/16 13:34:31;;;;;;;38.87;24.33;;;;;;;;;;5015546;28;20496;-78
2023/02/16 13:37:20;;;;;;;34.17;24.50;;;;;;;;;;5015472;28;20514;-77
2023/02/16 13:39:55;;;;;;;42.57;25.77;;;;;;;;;;5015493;28;20986;-78
2023/02/16 13:42:24;;;;;;;31.53;23.33;;;;;;;;;;5015130;28;20463;-78
2023/02/16 13:44:54;;;;;;;34.40;22.60;;;;;;;;;;5015169;28;21014;-78
2023/02/16 13:47:25;;;;;;;38.73;22.37;;;;;;;;;;5014479;28;20485;-79
2023/02/16 13:49:56;;;;;;;38.07;23.00;;;;;;;;;;5015309;28;20412;-78
2023/02/16 13:52:42;;;;;;;36.13;22.63;;;;;;;;;;5014104;28;20461;-79
2023/02/16 13:55:23;;;;;;;35.90;21.93;;;;;;;;;;5014682;28;20507;-79
2023/02/16 13:57:49;;;;;;;38.63;23.97;;;;;;;;;;5010924;28;20459;-78
2023/02/16 14:00:24;;;;;;;39.93;22.17;;;;;;;;;;5013099;28;20406;-79
2023/02/16 14:02:51;;;;;;;42.40;22.67;;;;;;;;;;5012377;28;20429;-77
2023/02/16 14:05:23;;;;;;;41.30;24.40;;;;;;;;;;5012262;28;20435;-79
2023/02/16 14:08:08;;;;;;;40.43;23.43;;;;;;;;;;5012856;28;20517;-78
2023/02/16 14:10:52;;;;;;;42.10;22.50;;;;;;;;;;5017848;28;20426;-79
2023/02/16 14:13:36;;;;;;;34.30;22.97;;;;;;;;;;5010857;28;20457;-78
2023/02/16 14:16:08;;;;;;;38.10;24.73;;;;;;;;;;5011901;28;20429;-79